sensor_id;sensor_type;location;lat;lon;timestamp;temperature;humidity
44170;DHT22;29836;52.286;9.576;2023-04-16T00:00:39;8.50;99.90
44170;DHT22;29836;52.286;9.576;2023-04-16T00:03:04;8.40;99.90
44170;DHT22;29836;52.286;9.576;2023-04-16T00:05:30;8.40;99.90
44170;DHT22;29836;52.286;9.576;2023-04-16T00:07:55;8.40;99.90
44170;DHT22;29836;52.286;9.576;2023-04-16T00:10:21;8.40;99.90
44170;DHT22;29836;52.286;9.576;2023-04-16T00:12:50;8.40;99.90
44170;DHT22;29836;52.286;9.576;2023-04-16T00:15:15;8.30;99.90
44170;DHT22;29836;52.286;9.576;2023-04-16T00:17:41;8.30;99.90
44170;DHT22;29836;52.286;9.576;2023-04-16T00:20:07;8.40;99.90
44170;DHT22;29836;52.286;9.576;2023-04-16T00:22:33;8.30;99.90
44170;DHT22;29836;52.286;9.576;2023-04-16T00:24:58;8.30;99.90
44170;DHT22;29836;52.286;9.576;2023-04-16T00:27:24;8.30;99.90
44170;DHT22;29836;52.286;9.576;2023-04-16T00:29:50;8.30;99.90
44170;DHT22;29836;52.286;9.576;2023-04-16T00:32:15;8.30;99.90
44170;DHT22;29836;52.286;9.576;2023-04-16T00:34:41;8.30;99.90
44170;DHT22;29836;52.286;9.576;2023-04-16T00:37:06;8.30;99.90
44170;DHT22;29836;52.286;9.576;2023-04-16T00:39:32;8.30;99.90
44170;DHT22;29836;52.286;9.576;2023-04-16T00:41:57;8.30;99.90
44170;DHT22;29836;52.286;9.576;2023-04-16T00:44:23;8.20;99.90
44170;DHT22;29836;52.286;9.576;2023-04-16T00:46:48;8.30;99.90
44170;DHT22;29836;52.286;9.576;2023-04-16T00:49:14;8.20;99.90
44170;DHT22;29836;52.286;9.576;2023-04-16T00:51:40;8.30;99.90
44170;DHT22;29836;52.286;9.576;2023-04-16T00:54:05;8.30;99.90
44170;DHT22;29836;52.286;9.576;2023-04-16T00:56:33;8.30;99.90
44170;DHT22;29836;52.286;9.576;2023-04-16T00:58:59;8.20;99.90
44170;DHT22;29836;52.286;9.576;2023-04-16T01:01:25;8.30;99.90
44170;DHT22;29836;52.286;9.576;2023-04-16T01:03:50;8.30;99.90
44170;DHT22;29836;52.286;9.576;2023-04-16T01:06:17;8.30;99.90
44170;DHT22;29836;52.286;9.576;2023-04-16T01:08:43;8.20;99.90
44170;DHT22;29836;52.286;9.576;2023-04-16T01:11:13;8.20;99.90
44170;DHT22;29836;52.286;9.576;2023-04-16T01:13:39;8.20;99.90
44170;DHT22;29836;52.286;9.576;2023-04-16T01:16:06;8.20;99.90
44170;DHT22;29836;52.286;9.576;2023-04-16T01:18:32;8.20;99.90
44170;DHT22;29836;52.286;9.576;2023-04-16T01:20:58;8.20;99.90
44170;DHT22;29836;52.286;9.576;2023-04-16T01:23:23;8.20;99.90
44170;DHT22;29836;52.286;9.576;2023-04-16T01:25:49;8.20;99.90
44170;DHT22;29836;52.286;9.576;2023-04-16T01:28:14;8.20;99.90
44170;DHT22;29836;52.286;9.576;2023-04-16T01:30:40;8.20;99.90
44170;DHT22;29836;52.286;9.576;2023-04-16T01:33:06;8.10;99.90
44170;DHT22;29836;52.286;9.576;2023-04-16T01:35:32;8.10;99.90
44170;DHT22;29836;52.286;9.576;2023-04-16T01:37:57;8.00;99.90
44170;DHT22;29836;52.286;9.576;2023-04-16T01:40:23;8.00;99.90
44170;DHT22;29836;52.286;9.576;2023-04-16T01:42:48;8.00;99.90
44170;DHT22;29836;52.286;9.576;2023-04-16T01:45:15;7.90;99.90
44170;DHT22;29836;52.286;9.576;2023-04-16T01:47:40;7.90;99.90
44170;DHT22;29836;52.286;9.576;2023-04-16T01:50:06;7.90;99.90
44170;DHT22;29836;52.286;9.576;2023-04-16T01:52:32;7.90;99.90
44170;DHT22;29836;52.286;9.576;2023-04-16T01:54:57;7.90;99.90
44170;DHT22;29836;52.286;9.576;2023-04-16T01:57:23;7.80;99.90
44170;DHT22;29836;52.286;9.576;2023-04-16T01:59:48;7.80;99.90
44170;DHT22;29836;52.286;9.576;2023-04-16T02:02:14;7.80;99.90
44170;DHT22;29836;52.286;9.576;2023-04-16T02:04:42;7.70;99.90
44170;DHT22;29836;52.286;9.576;2023-04-16T02:07:08;7.70;99.90
44170;DHT22;29836;52.286;9.576;2023-04-16T02:09:37;7.70;99.90
44170;DHT22;29836;52.286;9.576;2023-04-16T02:12:04;7.70;99.90
44170;DHT22;29836;52.286;9.576;2023-04-16T02:14:30;7.70;99.90
44170;DHT22;29836;52.286;9.576;2023-04-16T02:16:55;7.70;99.90
44170;DHT22;29836;52.286;9.576;2023-04-16T02:19:21;7.60;99.90
44170;DHT22;29836;52.286;9.576;2023-04-16T02:21:47;7.60;99.90
44170;DHT22;29836;52.286;9.576;2023-04-16T02:24:13;7.70;99.90
44170;DHT22;29836;52.286;9.576;2023-04-16T02:26:39;7.70;99.90
44170;DHT22;29836;52.286;9.576;2023-04-16T02:29:04;7.60;99.90
44170;DHT22;29836;52.286;9.576;2023-04-16T02:31:30;7.60;99.90
44170;DHT22;29836;52.286;9.576;2023-04-16T02:33:56;7.60;99.90
44170;DHT22;29836;52.286;9.576;2023-04-16T02:36:21;7.50;99.90
44170;DHT22;29836;52.286;9.576;2023-04-16T02:38:47;7.50;99.90
44170;DHT22;29836;52.286;9.576;2023-04-16T02:41:12;7.50;99.90
44170;DHT22;29836;52.286;9.576;2023-04-16T02:43:38;7.50;99.90
44170;DHT22;29836;52.286;9.576;2023-04-16T02:46:03;7.40;99.90
44170;DHT22;29836;52.286;9.576;2023-04-16T02:48:29;7.40;99.90
44170;DHT22;29836;52.286;9.576;2023-04-16T02:50:54;7.40;99.90
44170;DHT22;29836;52.286;9.576;2023-04-16T02:53:20;7.30;99.90
44170;DHT22;29836;52.286;9.576;2023-04-16T02:55:52;7.30;99.90
44170;DHT22;29836;52.286;9.576;2023-04-16T02:58:19;7.30;99.90
44170;DHT22;29836;52.286;9.576;2023-04-16T03:00:45;7.30;99.90
44170;DHT22;29836;52.286;9.576;2023-04-16T03:03:11;7.20;99.90
44170;DHT22;29836;52.286;9.576;2023-04-16T03:05:36;7.20;99.90
44170;DHT22;29836;52.286;9.576;2023-04-16T03:08:05;7.20;99.90
44170;DHT22;29836;52.286;9.576;2023-04-16T03:10:30;7.20;99.90
44170;DHT22;29836;52.286;9.576;2023-04-16T03:12:56;7.10;99.90
44170;DHT22;29836;52.286;9.576;2023-04-16T03:15:22;7.10;99.90
44170;DHT22;29836;52.286;9.576;2023-04-16T03:17:47;7.10;99.90
44170;DHT22;29836;52.286;9.576;2023-04-16T03:20:13;7.10;99.90
44170;DHT22;29836;52.286;9.576;2023-04-16T03:22:39;7.00;99.90
44170;DHT22;29836;52.286;9.576;2023-04-16T03:25:05;7.00;99.90
44170;DHT22;29836;52.286;9.576;2023-04-16T03:27:31;7.00;99.90
44170;DHT22;29836;52.286;9.576;2023-04-16T03:29:57;7.00;99.90
44170;DHT22;29836;52.286;9.576;2023-04-16T03:32:22;7.00;99.90
44170;DHT22;29836;52.286;9.576;2023-04-16T03:34:48;7.00;99.90
44170;DHT22;29836;52.286;9.576;2023-04-16T03:37:13;6.90;99.90
44170;DHT22;29836;52.286;9.576;2023-04-16T03:39:39;6.90;99.90
44170;DHT22;29836;52.286;9.576;2023-04-16T03:42:04;6.90;99.90
44170;DHT22;29836;52.286;9.576;2023-04-16T03:44:30;6.90;99.90
44170;DHT22;29836;52.286;9.576;2023-04-16T03:46:55;6.90;99.90
44170;DHT22;29836;52.286;9.576;2023-04-16T03:49:21;6.80;99.90
44170;DHT22;29836;52.286;9.576;2023-04-16T03:51:46;6.80;99.90
44170;DHT22;29836;52.286;9.576;2023-04-16T03:54:12;6.80;99.90
44170;DHT22;29836;52.286;9.576;2023-04-16T03:56:39;6.80;99.90
44170;DHT22;29836;52.286;9.576;2023-04-16T03:59:05;6.70;99.90
44170;DHT22;29836;52.286;9.576;2023-04-16T04:01:31;6.70;99.90
44170;DHT22;29836;52.286;9.576;2023-04-16T04:03:56;6.70;99.90
44170;DHT22;29836;52.286;9.576;2023-04-16T04:06:22;6.70;99.90
44170;DHT22;29836;52.286;9.576;2023-04-16T04:08:47;6.70;99.90
44170;DHT22;29836;52.286;9.576;2023-04-16T04:11:13;6.70;99.90
44170;DHT22;29836;52.286;9.576;2023-04-16T04:13:38;6.60;99.90
44170;DHT22;29836;52.286;9.576;2023-04-16T04:16:04;6.60;99.90
44170;DHT22;29836;52.286;9.576;2023-04-16T04:18:30;6.60;99.90
44170;DHT22;29836;52.286;9.576;2023-04-16T04:20:56;6.60;99.90
44170;DHT22;29836;52.286;9.576;2023-04-16T04:23:22;6.60;99.90
44170;DHT22;29836;52.286;9.576;2023-04-16T04:25:47;6.60;99.90
44170;DHT22;29836;52.286;9.576;2023-04-16T04:28:13;6.60;99.90
44170;DHT22;29836;52.286;9.576;2023-04-16T04:30:38;6.60;99.90
44170;DHT22;29836;52.286;9.576;2023-04-16T04:33:04;6.60;99.90
44170;DHT22;29836;52.286;9.576;2023-04-16T04:35:30;6.60;99.90
44170;DHT22;29836;52.286;9.576;2023-04-16T04:37:55;6.60;99.90
44170;DHT22;29836;52.286;9.576;2023-04-16T04:40:21;6.60;99.90
44170;DHT22;29836;52.286;9.576;2023-04-16T04:42:46;6.60;99.90
44170;DHT22;29836;52.286;9.576;2023-04-16T04:45:11;6.60;99.90
44170;DHT22;29836;52.286;9.576;2023-04-16T04:47:37;6.60;99.90
44170;DHT22;29836;52.286;9.576;2023-04-16T04:50:03;6.60;99.90
44170;DHT22;29836;52.286;9.576;2023-04-16T04:52:28;6.60;99.90
44170;DHT22;29836;52.286;9.576;2023-04-16T04:54:54;6.60;99.90
44170;DHT22;29836;52.286;9.576;2023-04-16T04:57:19;6.60;99.90
44170;DHT22;29836;52.286;9.576;2023-04-16T04:59:45;6.60;99.90
44170;DHT22;29836;52.286;9.576;2023-04-16T05:02:10;6.60;99.90
44170;DHT22;29836;52.286;9.576;2023-04-16T05:04:36;6.60;99.90
44170;DHT22;29836;52.286;9.576;2023-04-16T05:07:01;6.60;99.90
44170;DHT22;29836;52.286;9.576;2023-04-16T05:09:27;6.60;99.90
44170;DHT22;29836;52.286;9.576;2023-04-16T05:11:52;6.60;99.90
44170;DHT22;29836;52.286;9.576;2023-04-16T05:14:18;6.60;99.90
44170;DHT22;29836;52.286;9.576;2023-04-16T05:16:43;6.60;99.90
44170;DHT22;29836;52.286;9.576;2023-04-16T05:19:09;6.70;99.90
44170;DHT22;29836;52.286;9.576;2023-04-16T05:21:35;6.70;99.90
44170;DHT22;29836;52.286;9.576;2023-04-16T05:24:00;6.70;99.90
44170;DHT22;29836;52.286;9.576;2023-04-16T05:26:26;6.70;99.90
44170;DHT22;29836;52.286;9.576;2023-04-16T05:28:51;6.70;99.90
44170;DHT22;29836;52.286;9.576;2023-04-16T05:31:17;6.80;99.90
44170;DHT22;29836;52.286;9.576;2023-04-16T05:33:42;6.70;99.90
44170;DHT22;29836;52.286;9.576;2023-04-16T05:36:08;6.80;99.90
44170;DHT22;29836;52.286;9.576;2023-04-16T05:38:33;6.80;99.90
44170;DHT22;29836;52.286;9.576;2023-04-16T05:40:59;6.80;99.90
44170;DHT22;29836;52.286;9.576;2023-04-16T05:43:24;6.80;99.90
44170;DHT22;29836;52.286;9.576;2023-04-16T05:45:50;6.90;99.90
44170;DHT22;29836;52.286;9.576;2023-04-16T05:48:15;6.90;99.90
44170;DHT22;29836;52.286;9.576;2023-04-16T05:50:41;7.00;99.90
44170;DHT22;29836;52.286;9.576;2023-04-16T05:53:07;7.00;99.90
44170;DHT22;29836;52.286;9.576;2023-04-16T05:55:33;7.00;99.90
44170;DHT22;29836;52.286;9.576;2023-04-16T05:58:01;7.00;99.90
44170;DHT22;29836;52.286;9.576;2023-04-16T06:00:28;7.00;99.90
44170;DHT22;29836;52.286;9.576;2023-04-16T06:02:54;7.10;99.90
44170;DHT22;29836;52.286;9.576;2023-04-16T06:05:20;7.10;99.90
44170;DHT22;29836;52.286;9.576;2023-04-16T06:07:45;7.20;99.90
44170;DHT22;29836;52.286;9.576;2023-04-16T06:10:11;7.20;99.90
44170;DHT22;29836;52.286;9.576;2023-04-16T06:12:36;7.30;99.90
44170;DHT22;29836;52.286;9.576;2023-04-16T06:15:02;7.30;99.90
44170;DHT22;29836;52.286;9.576;2023-04-16T06:17:28;7.30;99.90
44170;DHT22;29836;52.286;9.576;2023-04-16T06:19:53;7.30;99.90
44170;DHT22;29836;52.286;9.576;2023-04-16T06:22:18;7.30;99.90
44170;DHT22;29836;52.286;9.576;2023-04-16T06:24:44;7.40;99.90
44170;DHT22;29836;52.286;9.576;2023-04-16T06:27:10;7.50;99.90
44170;DHT22;29836;52.286;9.576;2023-04-16T06:29:35;7.40;99.90
44170;DHT22;29836;52.286;9.576;2023-04-16T06:32:01;7.40;99.90
44170;DHT22;29836;52.286;9.576;2023-04-16T06:34:28;7.50;99.90
44170;DHT22;29836;52.286;9.576;2023-04-16T06:36:53;7.50;99.90
44170;DHT22;29836;52.286;9.576;2023-04-16T06:39:19;7.50;99.90
44170;DHT22;29836;52.286;9.576;2023-04-16T06:41:48;7.50;99.90
44170;DHT22;29836;52.286;9.576;2023-04-16T06:44:14;7.60;99.90
44170;DHT22;29836;52.286;9.576;2023-04-16T06:46:40;7.50;99.90
44170;DHT22;29836;52.286;9.576;2023-04-16T06:49:05;7.50;99.90
44170;DHT22;29836;52.286;9.576;2023-04-16T06:51:31;7.50;99.90
44170;DHT22;29836;52.286;9.576;2023-04-16T06:53:56;7.60;99.90
44170;DHT22;29836;52.286;9.576;2023-04-16T06:56:22;7.60;99.90
44170;DHT22;29836;52.286;9.576;2023-04-16T06:58:47;7.50;99.90
44170;DHT22;29836;52.286;9.576;2023-04-16T07:01:13;7.50;99.90
44170;DHT22;29836;52.286;9.576;2023-04-16T07:03:38;7.50;99.90
44170;DHT22;29836;52.286;9.576;2023-04-16T07:06:04;7.50;99.90
44170;DHT22;29836;52.286;9.576;2023-04-16T07:08:29;7.50;99.90
44170;DHT22;29836;52.286;9.576;2023-04-16T07:10:55;7.60;99.90
44170;DHT22;29836;52.286;9.576;2023-04-16T07:13:20;7.70;99.90
44170;DHT22;29836;52.286;9.576;2023-04-16T07:15:46;7.70;99.90
44170;DHT22;29836;52.286;9.576;2023-04-16T07:18:12;7.80;99.90
44170;DHT22;29836;52.286;9.576;2023-04-16T07:20:37;7.80;99.90
44170;DHT22;29836;52.286;9.576;2023-04-16T07:23:03;8.00;99.90
44170;DHT22;29836;52.286;9.576;2023-04-16T07:25:28;8.10;99.90
44170;DHT22;29836;52.286;9.576;2023-04-16T07:27:54;8.10;99.90
44170;DHT22;29836;52.286;9.576;2023-04-16T07:30:19;8.10;99.90
44170;DHT22;29836;52.286;9.576;2023-04-16T07:32:45;8.10;99.90
44170;DHT22;29836;52.286;9.576;2023-04-16T07:35:11;8.20;99.90
44170;DHT22;29836;52.286;9.576;2023-04-16T07:37:36;8.30;99.90
44170;DHT22;29836;52.286;9.576;2023-04-16T07:40:02;8.30;99.90
44170;DHT22;29836;52.286;9.576;2023-04-16T07:42:28;8.30;99.90
44170;DHT22;29836;52.286;9.576;2023-04-16T07:44:54;8.30;99.90
44170;DHT22;29836;52.286;9.576;2023-04-16T07:47:19;8.30;99.90
44170;DHT22;29836;52.286;9.576;2023-04-16T07:49:47;8.40;99.90
44170;DHT22;29836;52.286;9.576;2023-04-16T07:52:13;8.60;99.90
44170;DHT22;29836;52.286;9.576;2023-04-16T07:54:39;8.50;99.90
44170;DHT22;29836;52.286;9.576;2023-04-16T07:57:04;8.50;99.90
44170;DHT22;29836;52.286;9.576;2023-04-16T07:59:30;8.50;99.90
44170;DHT22;29836;52.286;9.576;2023-04-16T08:01:55;8.60;99.90
44170;DHT22;29836;52.286;9.576;2023-04-16T08:04:21;8.70;99.90
44170;DHT22;29836;52.286;9.576;2023-04-16T08:06:50;8.90;99.90
44170;DHT22;29836;52.286;9.576;2023-04-16T08:09:17;8.90;99.90
44170;DHT22;29836;52.286;9.576;2023-04-16T08:11:43;9.10;99.90
44170;DHT22;29836;52.286;9.576;2023-04-16T08:14:08;9.20;99.90
44170;DHT22;29836;52.286;9.576;2023-04-16T08:16:34;9.20;99.90
44170;DHT22;29836;52.286;9.576;2023-04-16T08:18:59;9.20;99.90
44170;DHT22;29836;52.286;9.576;2023-04-16T08:21:26;9.30;99.90
44170;DHT22;29836;52.286;9.576;2023-04-16T08:23:52;9.20;99.90
44170;DHT22;29836;52.286;9.576;2023-04-16T08:26:18;9.10;99.90
44170;DHT22;29836;52.286;9.576;2023-04-16T08:28:43;9.20;99.90
44170;DHT22;29836;52.286;9.576;2023-04-16T08:31:09;9.30;99.90
44170;DHT22;29836;52.286;9.576;2023-04-16T08:33:34;9.30;99.90
44170;DHT22;29836;52.286;9.576;2023-04-16T08:36:00;9.20;99.90
44170;DHT22;29836;52.286;9.576;2023-04-16T08:38:26;9.10;99.90
44170;DHT22;29836;52.286;9.576;2023-04-16T08:40:52;9.00;99.90
44170;DHT22;29836;52.286;9.576;2023-04-16T08:43:20;9.00;99.90
44170;DHT22;29836;52.286;9.576;2023-04-16T08:45:48;9.00;99.90
44170;DHT22;29836;52.286;9.576;2023-04-16T08:48:14;9.00;99.90
44170;DHT22;29836;52.286;9.576;2023-04-16T08:50:40;8.90;99.90
44170;DHT22;29836;52.286;9.576;2023-04-16T08:53:06;8.90;99.90
44170;DHT22;29836;52.286;9.576;2023-04-16T08:55:39;8.90;99.90
44170;DHT22;29836;52.286;9.576;2023-04-16T08:58:14;9.00;99.90
44170;DHT22;29836;52.286;9.576;2023-04-16T09:00:42;9.00;99.90
44170;DHT22;29836;52.286;9.576;2023-04-16T09:03:08;9.00;99.90
44170;DHT22;29836;52.286;9.576;2023-04-16T09:05:35;9.10;99.90
44170;DHT22;29836;52.286;9.576;2023-04-16T09:08:00;9.00;99.90
44170;DHT22;29836;52.286;9.576;2023-04-16T09:10:26;9.20;99.90
44170;DHT22;29836;52.286;9.576;2023-04-16T09:12:54;9.30;99.90
44170;DHT22;29836;52.286;9.576;2023-04-16T09:15:21;9.50;99.90
44170;DHT22;29836;52.286;9.576;2023-04-16T09:17:46;9.60;99.90
44170;DHT22;29836;52.286;9.576;2023-04-16T09:20:12;9.70;99.90
44170;DHT22;29836;52.286;9.576;2023-04-16T09:22:38;9.70;99.90
44170;DHT22;29836;52.286;9.576;2023-04-16T09:25:05;9.60;99.90
44170;DHT22;29836;52.286;9.576;2023-04-16T09:27:30;9.60;99.90
44170;DHT22;29836;52.286;9.576;2023-04-16T09:29:56;9.60;99.90
44170;DHT22;29836;52.286;9.576;2023-04-16T09:32:26;9.60;99.90
44170;DHT22;29836;52.286;9.576;2023-04-16T09:34:57;9.60;99.90
44170;DHT22;29836;52.286;9.576;2023-04-16T09:37:24;9.50;99.90
44170;DHT22;29836;52.286;9.576;2023-04-16T09:40:08;9.50;99.90
44170;DHT22;29836;52.286;9.576;2023-04-16T09:42:35;9.60;99.90
44170;DHT22;29836;52.286;9.576;2023-04-16T09:45:02;9.70;99.90
44170;DHT22;29836;52.286;9.576;2023-04-16T09:47:41;9.70;99.90
44170;DHT22;29836;52.286;9.576;2023-04-16T09:50:08;9.60;99.90
44170;DHT22;29836;52.286;9.576;2023-04-16T09:52:36;9.60;99.90
44170;DHT22;29836;52.286;9.576;2023-04-16T09:55:05;9.60;99.90
44170;DHT22;29836;52.286;9.576;2023-04-16T09:57:30;9.70;99.90
44170;DHT22;29836;52.286;9.576;2023-04-16T10:00:04;9.60;99.90
44170;DHT22;29836;52.286;9.576;2023-04-16T10:02:31;9.60;99.90
44170;DHT22;29836;52.286;9.576;2023-04-16T10:05:00;9.60;99.90
44170;DHT22;29836;52.286;9.576;2023-04-16T10:07:33;9.60;99.90
44170;DHT22;29836;52.286;9.576;2023-04-16T10:09:59;9.50;99.90
44170;DHT22;29836;52.286;9.576;2023-04-16T10:12:24;9.50;99.90
44170;DHT22;29836;52.286;9.576;2023-04-16T10:14:51;9.40;99.90
44170;DHT22;29836;52.286;9.576;2023-04-16T10:17:17;9.40;99.90
44170;DHT22;29836;52.286;9.576;2023-04-16T10:19:44;9.50;99.90
44170;DHT22;29836;52.286;9.576;2023-04-16T10:22:10;9.40;99.90
44170;DHT22;29836;52.286;9.576;2023-04-16T10:24:35;9.40;99.90
44170;DHT22;29836;52.286;9.576;2023-04-16T10:27:01;9.40;99.90
44170;DHT22;29836;52.286;9.576;2023-04-16T10:29:28;9.50;99.90
44170;DHT22;29836;52.286;9.576;2023-04-16T10:31:54;9.40;99.90
44170;DHT22;29836;52.286;9.576;2023-04-16T10:34:22;9.50;99.90
44170;DHT22;29836;52.286;9.576;2023-04-16T10:36:49;9.50;99.90
44170;DHT22;29836;52.286;9.576;2023-04-16T10:39:19;9.50;99.90
44170;DHT22;29836;52.286;9.576;2023-04-16T10:41:45;9.50;99.90
44170;DHT22;29836;52.286;9.576;2023-04-16T10:44:11;9.50;99.90
44170;DHT22;29836;52.286;9.576;2023-04-16T10:46:40;9.50;99.90
44170;DHT22;29836;52.286;9.576;2023-04-16T10:49:17;9.40;99.90
44170;DHT22;29836;52.286;9.576;2023-04-16T10:52:10;9.20;99.90
44170;DHT22;29836;52.286;9.576;2023-04-16T10:54:36;9.10;99.90
44170;DHT22;29836;52.286;9.576;2023-04-16T10:57:04;9.00;99.90
44170;DHT22;29836;52.286;9.576;2023-04-16T10:59:31;8.80;99.90
44170;DHT22;29836;52.286;9.576;2023-04-16T11:02:00;8.80;99.90
44170;DHT22;29836;52.286;9.576;2023-04-16T11:04:32;8.80;99.90
44170;DHT22;29836;52.286;9.576;2023-04-16T11:10:02;8.60;99.90
44170;DHT22;29836;52.286;9.576;2023-04-16T11:15:17;8.60;99.90
44170;DHT22;29836;52.286;9.576;2023-04-16T11:17:48;8.60;99.90
44170;DHT22;29836;52.286;9.576;2023-04-16T11:20:22;8.50;99.90
44170;DHT22;29836;52.286;9.576;2023-04-16T11:22:48;8.60;99.90
44170;DHT22;29836;52.286;9.576;2023-04-16T11:25:34;8.60;99.90
44170;DHT22;29836;52.286;9.576;2023-04-16T11:28:01;8.60;99.90
44170;DHT22;29836;52.286;9.576;2023-04-16T11:30:28;8.60;99.90
44170;DHT22;29836;52.286;9.576;2023-04-16T11:32:54;8.60;99.90
44170;DHT22;29836;52.286;9.576;2023-04-16T11:35:20;8.60;99.90
44170;DHT22;29836;52.286;9.576;2023-04-16T11:37:46;8.60;99.90
44170;DHT22;29836;52.286;9.576;2023-04-16T11:40:14;8.60;99.90
44170;DHT22;29836;52.286;9.576;2023-04-16T11:42:40;8.60;99.90
44170;DHT22;29836;52.286;9.576;2023-04-16T11:45:08;8.60;99.90
44170;DHT22;29836;52.286;9.576;2023-04-16T11:48:03;8.60;99.90
44170;DHT22;29836;52.286;9.576;2023-04-16T11:50:28;8.60;99.90
44170;DHT22;29836;52.286;9.576;2023-04-16T11:52:56;8.50;99.90
44170;DHT22;29836;52.286;9.576;2023-04-16T11:55:22;8.50;99.90
44170;DHT22;29836;52.286;9.576;2023-04-16T11:57:48;8.60;99.90
44170;DHT22;29836;52.286;9.576;2023-04-16T12:00:14;8.60;99.90
44170;DHT22;29836;52.286;9.576;2023-04-16T12:02:42;8.60;99.90
44170;DHT22;29836;52.286;9.576;2023-04-16T12:07:53;8.60;99.90
44170;DHT22;29836;52.286;9.576;2023-04-16T12:10:19;8.70;99.90
44170;DHT22;29836;52.286;9.576;2023-04-16T12:12:44;8.70;99.90
44170;DHT22;29836;52.286;9.576;2023-04-16T12:15:10;8.70;99.90
44170;DHT22;29836;52.286;9.576;2023-04-16T12:17:36;8.70;99.90
44170;DHT22;29836;52.286;9.576;2023-04-16T12:22:38;8.80;99.90
44170;DHT22;29836;52.286;9.576;2023-04-16T12:25:07;8.80;99.90
44170;DHT22;29836;52.286;9.576;2023-04-16T12:27:45;8.80;99.90
44170;DHT22;29836;52.286;9.576;2023-04-16T12:30:12;8.80;99.90
44170;DHT22;29836;52.286;9.576;2023-04-16T12:32:37;8.80;99.90
44170;DHT22;29836;52.286;9.576;2023-04-16T12:35:03;8.80;99.90
44170;DHT22;29836;52.286;9.576;2023-04-16T12:37:29;8.80;99.90
44170;DHT22;29836;52.286;9.576;2023-04-16T12:39:55;8.80;99.90
44170;DHT22;29836;52.286;9.576;2023-04-16T12:42:20;8.80;99.90
44170;DHT22;29836;52.286;9.576;2023-04-16T12:44:46;8.90;99.90
44170;DHT22;29836;52.286;9.576;2023-04-16T12:47:12;9.00;99.90
44170;DHT22;29836;52.286;9.576;2023-04-16T12:49:37;9.10;99.90
44170;DHT22;29836;52.286;9.576;2023-04-16T12:52:03;9.10;99.90
44170;DHT22;29836;52.286;9.576;2023-04-16T12:54:28;9.20;99.90
44170;DHT22;29836;52.286;9.576;2023-04-16T12:56:55;9.20;99.90
44170;DHT22;29836;52.286;9.576;2023-04-16T12:59:22;9.30;99.90
44170;DHT22;29836;52.286;9.576;2023-04-16T13:01:47;9.50;99.90
44170;DHT22;29836;52.286;9.576;2023-04-16T13:04:13;9.60;99.90
44170;DHT22;29836;52.286;9.576;2023-04-16T13:06:39;9.80;99.90
44170;DHT22;29836;52.286;9.576;2023-04-16T13:09:04;9.90;99.90
44170;DHT22;29836;52.286;9.576;2023-04-16T13:11:31;9.80;99.90
44170;DHT22;29836;52.286;9.576;2023-04-16T13:13:56;9.90;99.90
44170;DHT22;29836;52.286;9.576;2023-04-16T13:16:22;9.90;99.90
44170;DHT22;29836;52.286;9.576;2023-04-16T13:18:48;10.00;99.90
44170;DHT22;29836;52.286;9.576;2023-04-16T13:21:14;10.00;99.90
44170;DHT22;29836;52.286;9.576;2023-04-16T13:23:39;10.00;99.90
44170;DHT22;29836;52.286;9.576;2023-04-16T13:26:05;10.00;99.90
44170;DHT22;29836;52.286;9.576;2023-04-16T13:28:30;10.20;99.90
44170;DHT22;29836;52.286;9.576;2023-04-16T13:30:56;10.40;99.90
44170;DHT22;29836;52.286;9.576;2023-04-16T13:33:22;10.60;99.90
44170;DHT22;29836;52.286;9.576;2023-04-16T13:35:48;10.80;99.90
44170;DHT22;29836;52.286;9.576;2023-04-16T13:38:14;11.00;99.90
44170;DHT22;29836;52.286;9.576;2023-04-16T13:40:39;11.20;99.90
44170;DHT22;29836;52.286;9.576;2023-04-16T13:43:05;11.40;99.90
44170;DHT22;29836;52.286;9.576;2023-04-16T13:45:30;11.80;99.90
44170;DHT22;29836;52.286;9.576;2023-04-16T13:47:56;11.90;99.90
44170;DHT22;29836;52.286;9.576;2023-04-16T13:50:22;12.10;99.90
44170;DHT22;29836;52.286;9.576;2023-04-16T13:52:47;12.50;99.90
44170;DHT22;29836;52.286;9.576;2023-04-16T13:55:13;12.70;99.90
44170;DHT22;29836;52.286;9.576;2023-04-16T13:57:39;12.50;99.90
44170;DHT22;29836;52.286;9.576;2023-04-16T14:00:06;12.50;99.90
44170;DHT22;29836;52.286;9.576;2023-04-16T14:02:32;12.90;99.90
44170;DHT22;29836;52.286;9.576;2023-04-16T14:04:58;13.00;99.90
44170;DHT22;29836;52.286;9.576;2023-04-16T14:07:23;13.30;99.90
44170;DHT22;29836;52.286;9.576;2023-04-16T14:09:52;13.70;99.90
44170;DHT22;29836;52.286;9.576;2023-04-16T14:12:17;13.80;99.90
44170;DHT22;29836;52.286;9.576;2023-04-16T14:14:42;14.10;99.90
44170;DHT22;29836;52.286;9.576;2023-04-16T14:17:08;14.00;99.90
44170;DHT22;29836;52.286;9.576;2023-04-16T14:19:33;13.80;99.90
44170;DHT22;29836;52.286;9.576;2023-04-16T14:21:59;13.50;99.90
44170;DHT22;29836;52.286;9.576;2023-04-16T14:24:24;13.40;99.90
44170;DHT22;29836;52.286;9.576;2023-04-16T14:26:50;13.30;99.90
44170;DHT22;29836;52.286;9.576;2023-04-16T14:29:15;13.20;99.90
44170;DHT22;29836;52.286;9.576;2023-04-16T14:31:41;13.10;99.90
44170;DHT22;29836;52.286;9.576;2023-04-16T14:34:06;13.10;99.90
44170;DHT22;29836;52.286;9.576;2023-04-16T14:36:32;13.10;99.90
44170;DHT22;29836;52.286;9.576;2023-04-16T14:38:57;13.10;99.90
44170;DHT22;29836;52.286;9.576;2023-04-16T14:41:24;12.90;99.90
44170;DHT22;29836;52.286;9.576;2023-04-16T14:43:49;12.80;99.90
44170;DHT22;29836;52.286;9.576;2023-04-16T14:46:15;12.90;99.90
44170;DHT22;29836;52.286;9.576;2023-04-16T14:48:44;12.90;99.90
44170;DHT22;29836;52.286;9.576;2023-04-16T14:51:10;12.90;99.90
44170;DHT22;29836;52.286;9.576;2023-04-16T14:53:37;12.80;99.90
44170;DHT22;29836;52.286;9.576;2023-04-16T14:56:03;12.80;99.90
44170;DHT22;29836;52.286;9.576;2023-04-16T14:58:29;12.60;99.90
44170;DHT22;29836;52.286;9.576;2023-04-16T15:00:54;12.70;99.90
44170;DHT22;29836;52.286;9.576;2023-04-16T15:03:20;12.60;99.90
44170;DHT22;29836;52.286;9.576;2023-04-16T15:05:46;12.50;99.90
44170;DHT22;29836;52.286;9.576;2023-04-16T15:08:18;12.30;99.90
44170;DHT22;29836;52.286;9.576;2023-04-16T15:10:44;12.10;99.90
44170;DHT22;29836;52.286;9.576;2023-04-16T15:13:10;11.90;99.90
44170;DHT22;29836;52.286;9.576;2023-04-16T15:15:35;11.90;99.90
44170;DHT22;29836;52.286;9.576;2023-04-16T15:18:02;11.90;99.90
44170;DHT22;29836;52.286;9.576;2023-04-16T15:20:28;11.90;99.90
44170;DHT22;29836;52.286;9.576;2023-04-16T15:22:53;12.00;99.90
44170;DHT22;29836;52.286;9.576;2023-04-16T15:25:19;12.00;99.90
44170;DHT22;29836;52.286;9.576;2023-04-16T15:27:44;12.20;99.90
44170;DHT22;29836;52.286;9.576;2023-04-16T15:30:11;12.30;99.90
44170;DHT22;29836;52.286;9.576;2023-04-16T15:32:37;12.30;99.90
44170;DHT22;29836;52.286;9.576;2023-04-16T15:35:02;12.40;99.90
44170;DHT22;29836;52.286;9.576;2023-04-16T15:37:29;12.40;99.90
44170;DHT22;29836;52.286;9.576;2023-04-16T15:39:55;12.50;99.90
44170;DHT22;29836;52.286;9.576;2023-04-16T15:42:22;12.50;99.90
44170;DHT22;29836;52.286;9.576;2023-04-16T15:44:48;12.60;99.90
44170;DHT22;29836;52.286;9.576;2023-04-16T15:47:13;12.50;99.90